createdAt,value
2023-04-20T11:53:52.399Z,21.44
2023-04-20T11:56:19.364Z,21.46
2023-04-20T11:58:46.343Z,21.56
2023-04-20T12:01:13.410Z,21.67
2023-04-20T12:03:40.412Z,21.75
2023-04-20T12:06:07.469Z,21.90
2023-04-20T12:08:34.203Z,21.97
2023-04-20T12:11:01.018Z,21.98
2023-04-20T12:13:27.793Z,22.16
2023-04-20T12:15:54.676Z,22.26
2023-04-20T12:18:21.519Z,22.30
2023-04-20T12:20:50.199Z,22.38
2023-04-20T12:23:16.957Z,22.45
2023-04-20T12:25:43.694Z,22.59
2023-04-20T12:28:10.480Z,22.75
2023-04-20T12:30:37.365Z,22.75
2023-04-20T12:33:04.511Z,22.83
2023-04-20T12:35:31.314Z,22.94
2023-04-20T12:37:58.065Z,22.85
2023-04-20T12:40:25.008Z,22.73
2023-04-20T12:42:51.834Z,22.84
2023-04-20T12:45:19.309Z,22.85
2023-04-20T12:47:46.330Z,22.92
2023-04-20T12:50:13.289Z,22.84
2023-04-20T12:52:40.204Z,22.99
2023-04-20T12:55:08.032Z,22.80
2023-04-20T12:57:34.996Z,22.93
2023-04-20T13:00:06.187Z,23.08
2023-04-20T13:02:33.755Z,22.96
2023-04-20T13:05:00.629Z,23.00
2023-04-20T13:07:28.054Z,23.13
2023-04-20T13:09:54.835Z,23.13
2023-04-20T13:12:21.724Z,23.09
2023-04-20T13:14:48.705Z,23.12
2023-04-20T13:17:15.500Z,23.17
2023-04-20T13:19:42.238Z,23.09
2023-04-20T13:22:09.024Z,22.96
2023-04-20T13:24:35.735Z,23.02
2023-04-20T13:27:02.494Z,22.91
2023-04-20T13:29:29.255Z,22.69
2023-04-20T13:31:56.158Z,22.81
2023-04-20T13:34:23.082Z,22.76
2023-04-20T13:36:49.808Z,22.77
2023-04-20T13:39:17.780Z,22.75
2023-04-20T13:41:44.861Z,22.68
2023-04-20T13:44:16.298Z,22.67
2023-04-20T13:46:44.599Z,22.70
2023-04-20T13:49:13.394Z,22.55
2023-04-20T13:51:40.919Z,22.61
2023-04-20T13:54:07.879Z,22.57
2023-04-20T13:56:34.904Z,22.56
2023-04-20T13:59:04.016Z,22.49
2023-04-20T14:01:31.551Z,22.56
2023-04-20T14:03:58.886Z,22.67
2023-04-20T14:06:26.913Z,22.57
2023-04-20T14:08:53.724Z,22.55
2023-04-20T14:11:20.573Z,22.65
2023-04-20T14:13:47.491Z,22.65
2023-04-20T14:16:17.001Z,22.54
2023-04-20T14:18:43.863Z,22.58
2023-04-20T14:21:10.923Z,22.61
2023-04-20T14:23:37.801Z,22.63
2023-04-20T14:26:04.764Z,22.44
2023-04-20T14:28:33.424Z,22.39
2023-04-20T14:31:04.550Z,22.54
2023-04-20T14:33:31.411Z,22.56
2023-04-20T14:35:58.128Z,22.59
2023-04-20T14:38:24.878Z,22.76
2023-04-20T14:40:52.503Z,22.87
2023-04-20T14:43:19.275Z,22.94
2023-04-20T14:45:46.824Z,22.95
2023-04-20T14:48:13.577Z,22.89
2023-04-20T14:50:40.296Z,22.93
2023-04-20T14:53:07.062Z,22.95
2023-04-20T14:55:33.870Z,22.75
2023-04-20T14:58:00.813Z,22.86
2023-04-20T15:00:28.391Z,22.71
2023-04-20T15:02:59.676Z,22.54
2023-04-20T15:05:27.657Z,22.40
2023-04-20T15:07:54.648Z,22.46
2023-04-20T15:10:21.752Z,22.57
2023-04-20T15:12:48.880Z,22.76
2023-04-20T15:15:16.551Z,22.98
2023-04-20T15:17:44.523Z,23.06
2023-04-20T15:20:11.632Z,23.09
2023-04-20T15:22:38.376Z,23.08
2023-04-20T15:25:05.687Z,23.04
2023-04-20T15:27:32.421Z,23.12
2023-04-20T15:29:59.175Z,23.19
2023-04-20T15:32:26.811Z,22.98
2023-04-20T15:34:53.577Z,23.16
2023-04-20T15:37:20.474Z,23.11
2023-04-20T15:39:47.220Z,22.94
2023-04-20T15:42:14.019Z,22.84
2023-04-20T15:44:41.531Z,22.70
2023-04-20T15:47:08.502Z,22.47
2023-04-20T15:49:37.432Z,22.35
2023-04-20T15:52:04.598Z,22.41
2023-04-20T15:54:31.335Z,22.28
2023-04-20T15:56:58.141Z,22.22
2023-04-20T15:59:24.950Z,22.24
2023-04-20T16:01:52.120Z,22.25
2023-04-20T16:04:19.132Z,22.01
2023-04-20T16:06:46.202Z,22.08
2023-04-20T16:09:13.240Z,21.86
2023-04-20T16:11:40.703Z,21.67
2023-04-20T16:14:07.768Z,21.50
2023-04-20T16:16:34.688Z,21.34
2023-04-20T16:19:01.430Z,21.18
2023-04-20T16:21:28.235Z,20.89
2023-04-20T16:23:56.753Z,20.89
2023-04-20T16:26:26.093Z,20.74
2023-04-20T16:28:54.209Z,20.67
2023-04-20T16:31:21.269Z,20.55
2023-04-20T16:33:48.171Z,20.48
2023-04-20T16:36:16.519Z,20.38
2023-04-20T16:38:43.502Z,20.28
2023-04-20T16:41:10.340Z,20.30
2023-04-20T16:43:37.191Z,20.18
2023-04-20T16:46:04.016Z,20.11
2023-04-20T16:48:31.187Z,19.95
2023-04-20T16:50:57.977Z,19.98
2023-04-20T16:53:24.713Z,19.96
2023-04-20T16:55:51.875Z,19.88
2023-04-20T16:58:18.651Z,19.84
2023-04-20T17:00:45.542Z,19.81
2023-04-20T17:03:13.696Z,19.79
2023-04-20T17:05:42.129Z,19.78
2023-04-20T17:08:09.540Z,19.80
2023-04-20T17:10:39.528Z,19.60
2023-04-20T17:13:06.365Z,19.57
2023-04-20T17:15:33.151Z,19.69
2023-04-20T17:18:00.187Z,19.60
2023-04-20T17:20:27.007Z,19.69
2023-04-20T17:22:53.780Z,19.74
2023-04-20T17:25:20.615Z,19.74
2023-04-20T17:27:47.260Z,19.73
2023-04-20T17:30:14.295Z,19.76
2023-04-20T17:32:41.152Z,19.74
2023-04-20T17:35:08.314Z,19.77
2023-04-20T17:37:36.569Z,19.70
2023-04-20T17:40:06.257Z,19.71
2023-04-20T17:42:33.171Z,19.72
2023-04-20T17:45:00.021Z,19.70
2023-04-20T17:47:28.480Z,19.63
2023-04-20T17:49:56.077Z,19.50
2023-04-20T17:52:22.982Z,19.59
2023-04-20T17:54:49.874Z,19.63
2023-04-20T17:57:16.626Z,19.63
2023-04-20T17:59:43.374Z,19.65
2023-04-20T18:02:11.862Z,19.66
2023-04-20T18:04:39.198Z,19.56
2023-04-20T18:07:06.167Z,19.56
2023-04-20T18:09:32.982Z,19.57
2023-04-20T18:11:59.781Z,19.55
2023-04-20T18:14:26.590Z,19.50
2023-04-20T18:16:55.204Z,19.50
2023-04-20T18:19:22.746Z,19.51
2023-04-20T18:21:49.518Z,19.44
2023-04-20T18:24:16.609Z,19.47
2023-04-20T18:26:43.353Z,19.49
2023-04-20T18:29:10.135Z,19.46
2023-04-20T18:31:37.143Z,19.46
2023-04-20T18:34:04.149Z,19.44
2023-04-20T18:36:31.535Z,19.38
2023-04-20T18:39:03.166Z,19.36
2023-04-20T18:41:30.600Z,19.31
2023-04-20T18:43:57.328Z,19.25
2023-04-20T18:46:25.682Z,19.21
2023-04-20T18:48:52.669Z,19.17
2023-04-20T18:51:19.367Z,19.13
2023-04-20T18:53:46.432Z,19.09
2023-04-20T18:56:13.098Z,19.05
2023-04-20T18:58:39.823Z,19.00
2023-04-20T19:01:06.768Z,18.96
2023-04-20T19:03:33.740Z,18.93
2023-04-20T19:06:00.638Z,18.92
2023-04-20T19:08:27.562Z,18.89
2023-04-20T19:10:57.705Z,18.87
2023-04-20T19:13:24.559Z,18.87
2023-04-20T19:15:55.166Z,18.86
2023-04-20T19:18:22.020Z,18.83
2023-04-20T19:20:48.888Z,18.82
2023-04-20T19:23:15.693Z,18.79
2023-04-20T19:25:42.484Z,18.79
2023-04-20T19:28:10.433Z,18.79
2023-04-20T19:30:37.201Z,18.76
2023-04-20T19:33:05.120Z,18.77
2023-04-20T19:35:32.282Z,18.78
2023-04-20T19:37:59.972Z,18.69
2023-04-20T19:40:32.844Z,18.71
2023-04-20T19:42:59.582Z,18.70
2023-04-20T19:45:26.263Z,18.67
2023-04-20T19:47:53.074Z,18.62
2023-04-20T19:50:19.821Z,18.60
2023-04-20T19:52:46.644Z,18.63
2023-04-20T19:55:13.554Z,18.61
2023-04-20T19:57:40.337Z,18.62
2023-04-20T20:00:08.800Z,18.58
2023-04-20T20:02:41.802Z,18.52
2023-04-20T20:05:09.311Z,18.54
2023-04-20T20:07:36.130Z,18.54
2023-04-20T20:10:04.040Z,18.55
2023-04-20T20:12:30.988Z,18.52
2023-04-20T20:14:57.884Z,18.50
2023-04-20T20:17:24.645Z,18.47
2023-04-20T20:19:53.758Z,18.46
2023-04-20T20:22:21.866Z,18.43
2023-04-20T20:24:52.407Z,18.42
2023-04-20T20:27:19.248Z,18.45
2023-04-20T20:29:45.992Z,18.45
2023-04-20T20:32:12.830Z,18.45
2023-04-20T20:34:39.550Z,18.46
2023-04-20T20:37:07.010Z,18.46
2023-04-20T20:39:33.760Z,18.45
2023-04-20T20:42:02.010Z,18.42
2023-04-20T20:44:32.723Z,18.43
2023-04-20T20:47:00.749Z,18.38
2023-04-20T20:49:27.799Z,18.37
2023-04-20T20:51:54.792Z,18.36
2023-04-20T20:54:21.726Z,18.38
2023-04-20T20:56:48.682Z,18.38
2023-04-20T20:59:15.457Z,18.37
2023-04-20T21:01:42.579Z,18.38
2023-04-20T21:04:09.580Z,18.37
2023-04-20T21:06:36.364Z,18.35
2023-04-20T21:09:04.288Z,18.37
2023-04-20T21:11:31.074Z,18.37
2023-04-20T21:14:01.752Z,18.35
2023-04-20T21:16:29.201Z,18.33
2023-04-20T21:18:55.948Z,18.33
2023-04-20T21:21:22.781Z,18.33
2023-04-20T21:23:50.443Z,18.33
2023-04-20T21:26:17.310Z,18.33
2023-04-20T21:28:44.575Z,18.32
2023-04-20T21:31:11.367Z,18.31
2023-04-20T21:33:38.343Z,18.31
2023-04-20T21:36:05.512Z,18.32
2023-04-20T21:38:32.306Z,18.32
2023-04-20T21:40:59.076Z,18.32
2023-04-20T21:43:25.819Z,18.32
2023-04-20T21:45:52.794Z,18.33
2023-04-20T21:48:22.152Z,18.35
2023-04-20T21:50:48.859Z,18.37
2023-04-20T21:53:15.749Z,18.35
2023-04-20T21:55:42.598Z,18.38
2023-04-20T21:58:09.372Z,18.37
2023-04-20T22:00:36.204Z,18.33
2023-04-20T22:03:03.044Z,18.32
2023-04-20T22:05:29.988Z,18.33
2023-04-20T22:07:59.931Z,18.34
2023-04-20T22:10:27.280Z,18.33
2023-04-20T22:12:54.136Z,18.33
2023-04-20T22:15:23.451Z,18.32
2023-04-20T22:17:50.352Z,18.31
2023-04-20T22:20:19.361Z,18.30
2023-04-20T22:22:46.657Z,18.28
2023-04-20T22:25:13.543Z,18.27
2023-04-20T22:27:40.425Z,18.28
2023-04-20T22:30:09.684Z,18.28
2023-04-20T22:32:38.119Z,18.27
2023-04-20T22:35:05.438Z,18.27
2023-04-20T22:37:32.293Z,18.26
2023-04-20T22:39:59.256Z,18.24
2023-04-20T22:42:26.244Z,18.26
2023-04-20T22:44:53.118Z,18.25
2023-04-20T22:47:20.013Z,18.24
2023-04-20T22:49:46.958Z,18.26
2023-04-20T22:52:13.792Z,18.26
2023-04-20T22:54:40.730Z,18.26
2023-04-20T22:57:07.668Z,18.25
2023-04-20T22:59:34.511Z,18.25
2023-04-20T23:02:01.534Z,18.23
2023-04-20T23:04:28.412Z,18.25
2023-04-20T23:06:56.710Z,18.25
2023-04-20T23:09:24.006Z,18.15
2023-04-20T23:11:51.009Z,18.06
2023-04-20T23:14:17.898Z,17.96
2023-04-20T23:16:44.934Z,17.96
2023-04-20T23:19:11.958Z,17.91
2023-04-20T23:21:38.818Z,17.82
2023-04-20T23:24:05.801Z,17.88
2023-04-20T23:26:32.676Z,17.82
2023-04-20T23:28:59.612Z,17.84
2023-04-20T23:31:26.505Z,17.81
2023-04-20T23:33:53.365Z,17.68
2023-04-20T23:36:20.232Z,17.38
2023-04-20T23:38:47.080Z,17.45
2023-04-20T23:41:15.721Z,17.54
2023-04-20T23:43:42.704Z,17.42
2023-04-20T23:46:09.631Z,17.52
2023-04-20T23:48:36.549Z,17.41
2023-04-20T23:51:03.602Z,17.22
2023-04-20T23:53:30.561Z,17.27
2023-04-20T23:55:57.503Z,17.33
2023-04-20T23:58:25.439Z,17.25
